createdAt,value
2022-10-05T00:00:23.210Z,101499.75
2022-10-05T00:02:52.471Z,101498.75
2022-10-05T00:05:32.778Z,101506.25
2022-10-05T00:08:17.868Z,101499.47
2022-10-05T00:10:46.095Z,101499.13
2022-10-05T00:13:15.191Z,101503.06
2022-10-05T00:15:42.519Z,101497.81
2022-10-05T00:18:18.188Z,101492.84
2022-10-05T00:20:46.675Z,101497.72
2022-10-05T00:23:20.811Z,101488.94
2022-10-05T00:25:47.986Z,101483.47
2022-10-05T00:28:30.899Z,101479.41
2022-10-05T00:30:58.883Z,101485.72
2022-10-05T00:33:27.094Z,101481.56
2022-10-05T00:35:55.244Z,101479.81
2022-10-05T00:38:22.314Z,101482.06
2022-10-05T00:41:06.676Z,101483.03
2022-10-05T00:43:53.417Z,101487.09
2022-10-05T00:46:31.003Z,101470.03
2022-10-05T00:49:14.866Z,101464.81
2022-10-05T00:51:47.931Z,101465.28
2022-10-05T00:54:39.760Z,101462.31
2022-10-05T00:57:12.095Z,101449.19
2022-10-05T01:00:06.010Z,101437.31
2022-10-05T01:02:47.621Z,101437.06
2022-10-05T01:05:52.028Z,101439.81
2022-10-05T01:08:44.054Z,101456.09
2022-10-05T01:11:22.386Z,101456.22
2022-10-05T01:14:16.782Z,101454.22
2022-10-05T01:16:59.147Z,101449.22
2022-10-05T01:19:49.654Z,101448.13
2022-10-05T01:22:47.566Z,101444.59
2022-10-05T01:25:32.556Z,101441.00
2022-10-05T01:28:40.776Z,101440.88
2022-10-05T01:31:23.635Z,101441.81
2022-10-05T01:34:24.514Z,101433.34
2022-10-05T01:37:15.551Z,101431.59
2022-10-05T01:39:56.188Z,101423.13
2022-10-05T01:42:31.871Z,101432.53
2022-10-05T01:45:08.539Z,101432.78
2022-10-05T01:47:45.925Z,101429.81
2022-10-05T01:50:26.633Z,101420.66
2022-10-05T01:53:12.731Z,101417.44
2022-10-05T01:56:21.315Z,101424.81
2022-10-05T01:58:56.861Z,101418.47
2022-10-05T02:01:43.479Z,101414.31
2022-10-05T02:04:42.724Z,101413.63
2022-10-05T02:07:22.842Z,101392.53
2022-10-05T02:09:55.470Z,101399.44
2022-10-05T02:12:25.475Z,101400.63
2022-10-05T02:14:58.551Z,101407.31
2022-10-05T02:17:37.368Z,101403.63
2022-10-05T02:20:09.046Z,101396.34
2022-10-05T02:22:38.070Z,101393.63
2022-10-05T02:25:13.551Z,101395.53
2022-10-05T02:27:47.769Z,101398.38
2022-10-05T02:30:16.939Z,101397.78
2022-10-05T02:32:51.848Z,101399.69
2022-10-05T02:35:20.024Z,101400.50
2022-10-05T02:38:04.642Z,101400.06
2022-10-05T02:40:45.935Z,101393.28
2022-10-05T02:44:01.196Z,101383.03
2022-10-05T02:46:30.506Z,101373.88
2022-10-05T02:49:17.511Z,101369.09
2022-10-05T02:52:13.641Z,101362.94
2022-10-05T02:55:01.792Z,101371.25
2022-10-05T02:57:39.184Z,101366.63
2022-10-05T03:00:11.997Z,101370.31
2022-10-05T03:02:48.118Z,101374.69
2022-10-05T03:05:37.687Z,101365.91
2022-10-05T03:08:20.756Z,101371.72
2022-10-05T03:11:17.704Z,101373.16
2022-10-05T03:13:44.244Z,101367.91
2022-10-05T03:16:13.835Z,101377.69
2022-10-05T03:19:07.234Z,101361.97
2022-10-05T03:21:56.442Z,101365.19
2022-10-05T03:24:44.888Z,101352.22
2022-10-05T03:27:40.569Z,101349.50
2022-10-05T03:30:16.009Z,101344.72
2022-10-05T03:32:57.515Z,101342.09
2022-10-05T03:35:45.266Z,101337.13
2022-10-05T03:38:22.355Z,101333.31
2022-10-05T03:41:31.171Z,101336.38
2022-10-05T03:44:26.466Z,101330.34
2022-10-05T03:47:33.123Z,101324.84
2022-10-05T03:50:02.587Z,101318.88
2022-10-05T03:52:44.720Z,101321.38
2022-10-05T03:55:39.906Z,101322.09
2022-10-05T03:58:30.649Z,101333.63
2022-10-05T04:01:03.443Z,101327.00
2022-10-05T04:03:33.124Z,101334.13
2022-10-05T04:06:08.337Z,101339.47
2022-10-05T04:08:47.855Z,101336.38
2022-10-05T04:11:21.379Z,101335.22
2022-10-05T04:13:57.621Z,101337.69
2022-10-05T04:16:55.101Z,101337.69
2022-10-05T04:19:27.777Z,101333.19
2022-10-05T04:22:12.405Z,101325.91
2022-10-05T04:24:38.985Z,101334.25
2022-10-05T04:27:17.955Z,101320.56
2022-10-05T04:29:44.480Z,101323.31
2022-10-05T04:32:35.759Z,101327.84
2022-10-05T04:35:14.338Z,101319.50
2022-10-05T04:37:52.669Z,101314.94
2022-10-05T04:40:28.606Z,101322.91
2022-10-05T04:43:15.549Z,101319.13
2022-10-05T04:46:24.696Z,101309.63
2022-10-05T04:49:23.632Z,101309.13
2022-10-05T04:52:13.745Z,101317.81
2022-10-05T04:55:08.783Z,101322.22
2022-10-05T04:57:57.219Z,101316.25
2022-10-05T05:00:26.823Z,101320.19
2022-10-05T05:03:31.840Z,101314.94
2022-10-05T05:06:18.051Z,101313.63
2022-10-05T05:09:22.225Z,101318.66
2022-10-05T05:12:19.502Z,101314.25
2022-10-05T05:15:07.842Z,101303.97
2022-10-05T05:18:07.651Z,101295.09
2022-10-05T05:21:09.603Z,101296.66
2022-10-05T05:23:47.234Z,101299.50
2022-10-05T05:26:52.652Z,101301.63
2022-10-05T05:30:03.873Z,101302.22
2022-10-05T05:32:49.084Z,101294.97
2022-10-05T05:35:15.784Z,101299.84
2022-10-05T05:37:58.253Z,101298.41
2022-10-05T05:40:33.517Z,101294.00
2022-10-05T05:43:16.188Z,101287.44
2022-10-05T05:45:49.438Z,101300.69
2022-10-05T05:48:30.832Z,101290.06
2022-10-05T05:51:08.749Z,101291.88
2022-10-05T05:53:45.439Z,101278.09
2022-10-05T05:56:15.176Z,101278.78
2022-10-05T05:58:55.044Z,101280.78
2022-10-05T06:01:33.199Z,101286.03
2022-10-05T06:04:12.845Z,101280.91
2022-10-05T06:06:44.797Z,101279.13
2022-10-05T06:09:34.224Z,101287.81
2022-10-05T06:12:12.725Z,101294.81
2022-10-05T06:14:49.932Z,101282.72
2022-10-05T06:17:16.432Z,101279.22
2022-10-05T06:19:44.530Z,101278.50
2022-10-05T06:22:13.792Z,101269.28
2022-10-05T06:24:43.413Z,101283.28
2022-10-05T06:27:19.774Z,101289.81
2022-10-05T06:30:11.138Z,101297.31
2022-10-05T06:32:46.707Z,101304.22
2022-10-05T06:35:44.181Z,101305.06
2022-10-05T06:38:25.069Z,101309.91
2022-10-05T06:41:19.507Z,101300.97
2022-10-05T06:44:00.793Z,101294.19
2022-10-05T06:46:48.929Z,101302.00
2022-10-05T06:49:23.527Z,101302.97
2022-10-05T06:51:56.510Z,101297.84
2022-10-05T06:54:38.096Z,101297.22
2022-10-05T06:57:13.011Z,101302.63
2022-10-05T07:00:02.257Z,101288.28
2022-10-05T07:02:54.447Z,101275.78
2022-10-05T07:05:45.863Z,101274.00
2022-10-05T07:08:28.532Z,101278.25
2022-10-05T07:11:00.764Z,101281.09
2022-10-05T07:13:45.952Z,101277.31
2022-10-05T07:16:24.588Z,101275.47
2022-10-05T07:19:32.293Z,101292.16
2022-10-05T07:22:19.967Z,101287.19
2022-10-05T07:25:04.193Z,101282.38
2022-10-05T07:27:40.670Z,101289.84
2022-10-05T07:30:13.673Z,101283.38
2022-10-05T07:33:09.391Z,101284.47
2022-10-05T07:36:17.377Z,101290.03
2022-10-05T07:39:02.500Z,101294.91
2022-10-05T07:41:48.671Z,101296.41
2022-10-05T07:44:19.415Z,101296.22
2022-10-05T07:46:54.144Z,101281.81
2022-10-05T07:49:23.411Z,101284.03
2022-10-05T07:51:57.555Z,101286.13
2022-10-05T07:54:30.888Z,101296.59
2022-10-05T07:57:23.387Z,101296.16
2022-10-05T08:00:03.836Z,101307.53
2022-10-05T08:03:10.544Z,101306.97
2022-10-05T08:05:42.229Z,101299.38
2022-10-05T08:08:13.394Z,101305.88
2022-10-05T08:11:01.000Z,101301.66
2022-10-05T08:13:47.389Z,101309.72
2022-10-05T08:16:14.813Z,101307.41
2022-10-05T08:18:56.526Z,101293.06
2022-10-05T08:21:31.074Z,101314.84
2022-10-05T08:24:57.411Z,101303.22
2022-10-05T08:27:32.677Z,101305.38
2022-10-05T08:30:03.782Z,101307.19
2022-10-05T08:32:56.028Z,101309.53
2022-10-05T08:35:34.171Z,101312.50
2022-10-05T08:38:14.879Z,101308.50
2022-10-05T08:41:03.350Z,101301.44
2022-10-05T08:44:04.840Z,101303.16
2022-10-05T08:46:34.035Z,101300.53
2022-10-05T08:49:19.021Z,101295.66
2022-10-05T08:52:06.591Z,101294.13
2022-10-05T08:54:45.360Z,101280.72
2022-10-05T08:57:54.057Z,101299.19
2022-10-05T09:00:23.654Z,101287.59
2022-10-05T09:03:12.971Z,101291.31
2022-10-05T09:05:58.202Z,101284.06
2022-10-05T09:08:52.645Z,101297.38
2022-10-05T09:11:19.081Z,101296.94
2022-10-05T09:13:48.622Z,101300.25
2022-10-05T09:16:15.137Z,101296.75
2022-10-05T09:18:53.553Z,101296.47
2022-10-05T09:21:44.027Z,101297.88
2022-10-05T09:24:26.195Z,101282.72
2022-10-05T09:27:09.685Z,101284.44
2022-10-05T09:30:03.877Z,101278.69
2022-10-05T09:33:08.153Z,101276.81
2022-10-05T09:36:05.323Z,101274.06
2022-10-05T09:38:53.373Z,101282.34
2022-10-05T09:41:34.557Z,101281.91
2022-10-05T09:44:47.927Z,101281.16
2022-10-05T09:47:35.996Z,101272.16
2022-10-05T09:50:17.746Z,101273.22
2022-10-05T09:52:58.009Z,101265.50
2022-10-05T09:56:06.148Z,101264.44
2022-10-05T09:58:50.853Z,101265.44
2022-10-05T10:01:33.789Z,101266.22
2022-10-05T10:04:25.607Z,101265.91
2022-10-05T10:07:34.266Z,101272.81
2022-10-05T10:10:30.437Z,101266.97
2022-10-05T10:13:15.819Z,101267.47
2022-10-05T10:16:18.221Z,101250.38
2022-10-05T10:19:12.922Z,101247.03
2022-10-05T10:21:51.373Z,101253.06
2022-10-05T10:24:24.024Z,101248.28
2022-10-05T10:27:21.510Z,101246.78
2022-10-05T10:29:55.418Z,101253.69
2022-10-05T10:32:53.040Z,101248.41
2022-10-05T10:38:15.190Z,101240.09
2022-10-05T10:41:11.579Z,101238.00
2022-10-05T10:43:43.856Z,101249.38
2022-10-05T10:46:44.969Z,101255.66
2022-10-05T10:49:20.625Z,101243.56
2022-10-05T10:52:18.029Z,101251.84
2022-10-05T10:54:47.507Z,101251.31
2022-10-05T10:57:22.389Z,101253.31
2022-10-05T11:00:16.135Z,101251.31
2022-10-05T11:02:42.746Z,101247.66
2022-10-05T11:06:03.378Z,101247.47
2022-10-05T11:08:49.902Z,101249.63
2022-10-05T11:11:56.222Z,101256.00
2022-10-05T11:14:51.900Z,101249.13
2022-10-05T11:17:31.741Z,101248.50
2022-10-05T11:20:25.978Z,101239.69
2022-10-05T11:23:19.333Z,101237.19
2022-10-05T11:26:06.187Z,101233.69
2022-10-05T11:28:42.437Z,101229.59
2022-10-05T11:31:50.811Z,101232.56
2022-10-05T11:34:20.619Z,101221.06
2022-10-05T11:37:13.588Z,101222.47
2022-10-05T11:40:11.633Z,101220.38
2022-10-05T11:43:04.309Z,101218.38
2022-10-05T11:46:05.528Z,101211.03
2022-10-05T11:48:56.000Z,101204.69
2022-10-05T11:51:53.826Z,101203.66
2022-10-05T11:55:12.049Z,101204.50
2022-10-05T11:57:58.876Z,101195.69
2022-10-05T12:00:34.597Z,101196.47
2022-10-05T12:03:23.029Z,101187.78
2022-10-05T12:06:01.724Z,101188.91
2022-10-05T12:08:47.946Z,101187.09
2022-10-05T12:11:37.834Z,101190.91
2022-10-05T12:14:14.263Z,101179.41
2022-10-05T12:17:13.677Z,101181.34
2022-10-05T12:19:45.845Z,101170.84
2022-10-05T12:22:21.057Z,101166.22
2022-10-05T12:25:15.683Z,101168.72
2022-10-05T12:27:46.731Z,101163.75
2022-10-05T12:30:18.796Z,101150.06
2022-10-05T12:33:02.210Z,101145.13
2022-10-05T12:35:47.421Z,101147.88
2022-10-05T12:38:34.696Z,101147.38
2022-10-05T12:41:13.749Z,101144.06
2022-10-05T12:44:02.632Z,101144.94
2022-10-05T12:46:49.872Z,101140.91
2022-10-05T12:49:32.744Z,101142.88
2022-10-05T12:52:13.846Z,101130.44
2022-10-05T12:55:06.442Z,101131.31
2022-10-05T12:57:45.476Z,101126.38
2022-10-05T13:00:20.330Z,101132.72
2022-10-05T13:03:00.311Z,101129.41
2022-10-05T13:05:47.140Z,101129.38
2022-10-05T13:08:24.662Z,101131.06
2022-10-05T13:11:23.816Z,101129.13
2022-10-05T13:14:23.498Z,101111.25
2022-10-05T13:17:06.914Z,101105.75
2022-10-05T13:19:36.957Z,101101.94
2022-10-05T13:22:03.388Z,101106.88
2022-10-05T13:24:31.390Z,101109.34
2022-10-05T13:27:24.934Z,101101.38
2022-10-05T13:29:58.854Z,101110.19
2022-10-05T13:32:29.749Z,101114.31
2022-10-05T13:35:02.717Z,101109.66
2022-10-05T13:37:47.320Z,101105.25
2022-10-05T13:40:54.003Z,101107.72
2022-10-05T13:43:20.800Z,101097.28
2022-10-05T13:46:09.164Z,101103.91
2022-10-05T13:49:03.730Z,101100.31
2022-10-05T13:51:46.303Z,101102.53
2022-10-05T13:54:23.148Z,101100.88
2022-10-05T13:56:56.492Z,101097.00
2022-10-05T13:59:38.512Z,101100.06
2022-10-05T14:02:17.532Z,101097.28
2022-10-05T14:04:58.794Z,101101.16
2022-10-05T14:07:39.446Z,101096.72
2022-10-05T14:10:13.943Z,101093.69
2022-10-05T14:12:43.537Z,101094.25
2022-10-05T14:15:21.070Z,101094.75
2022-10-05T14:17:47.643Z,101102.50
2022-10-05T14:20:23.101Z,101099.78
2022-10-05T14:22:57.399Z,101101.16
2022-10-05T14:25:24.251Z,101108.31
2022-10-05T14:27:57.265Z,101100.84
2022-10-05T14:30:27.036Z,101096.47
2022-10-05T14:32:57.213Z,101089.56
2022-10-05T14:35:28.248Z,101086.28
2022-10-05T14:37:56.575Z,101076.09
2022-10-05T14:40:35.684Z,101084.34
2022-10-05T14:43:19.033Z,101084.34
2022-10-05T14:46:01.526Z,101071.38
2022-10-05T14:48:38.407Z,101070.59
2022-10-05T14:51:31.933Z,101069.75
2022-10-05T14:54:27.519Z,101072.25
2022-10-05T14:57:06.457Z,101070.28
2022-10-05T14:59:57.185Z,101072.78
2022-10-05T15:03:01.159Z,101069.47
2022-10-05T15:05:54.398Z,101073.34
2022-10-05T15:08:57.077Z,101065.63
2022-10-05T15:11:35.716Z,101056.78
2022-10-05T15:14:14.784Z,101047.44
2022-10-05T15:16:42.353Z,101043.84
2022-10-05T15:19:17.973Z,101030.66
2022-10-05T15:21:54.918Z,101032.84
2022-10-05T15:24:26.454Z,101030.06
2022-10-05T15:26:59.220Z,101019.34
2022-10-05T15:29:47.356Z,101003.91
2022-10-05T15:32:34.392Z,101002.53
2022-10-05T15:35:16.655Z,101004.19
2022-10-05T15:37:47.863Z,100992.66
2022-10-05T15:40:20.220Z,100998.69
2022-10-05T15:42:46.885Z,101001.16
2022-10-05T15:45:24.699Z,101004.47
2022-10-05T15:47:59.454Z,101011.66
2022-10-05T15:50:29.783Z,101013.03
2022-10-05T15:53:18.185Z,101014.69
2022-10-05T15:56:03.427Z,101015.50
2022-10-05T15:58:45.343Z,101012.75
2022-10-05T16:01:33.815Z,101010.25
2022-10-05T16:04:25.252Z,101011.34
2022-10-05T16:07:18.112Z,101012.16
2022-10-05T16:10:16.555Z,101022.09
2022-10-05T16:12:56.538Z,101025.94
2022-10-05T16:15:30.040Z,101024.31
2022-10-05T16:18:34.121Z,101029.81
2022-10-05T16:21:18.535Z,101026.44
2022-10-05T16:24:12.371Z,101022.59
2022-10-05T16:26:58.587Z,101034.03
2022-10-05T16:30:02.567Z,101032.16
2022-10-05T16:32:32.511Z,101037.72
2022-10-05T16:35:32.477Z,101034.59
2022-10-05T16:38:15.554Z,101051.09
2022-10-05T16:40:52.650Z,101043.38
2022-10-05T16:43:46.803Z,101057.09
2022-10-05T16:46:38.392Z,101060.66
2022-10-05T16:49:41.940Z,101062.03
2022-10-05T16:52:14.939Z,101071.41
2022-10-05T16:54:51.631Z,101078.56
2022-10-05T16:57:30.544Z,101073.56
2022-10-05T17:00:31.906Z,101082.06
2022-10-05T17:03:19.538Z,101081.22
2022-10-05T17:06:08.155Z,101077.06
2022-10-05T17:09:10.168Z,101080.16
2022-10-05T17:11:55.737Z,101085.69
2022-10-05T17:14:54.725Z,101084.31
2022-10-05T17:17:58.692Z,101085.75
2022-10-05T17:20:44.475Z,101087.38
2022-10-05T17:23:39.023Z,101091.22
2022-10-05T17:26:33.667Z,101092.88
2022-10-05T17:29:28.860Z,101089.31
2022-10-05T17:32:18.856Z,101087.16
2022-10-05T17:35:18.227Z,101092.31
2022-10-05T17:38:22.111Z,101084.25
2022-10-05T17:41:06.450Z,101085.09
2022-10-05T17:43:34.082Z,101082.94
2022-10-05T17:46:06.911Z,101089.53
2022-10-05T17:48:40.402Z,101086.31
2022-10-05T17:51:45.022Z,101083.00
2022-10-05T17:55:09.115Z,101079.63
2022-10-05T17:57:37.203Z,101079.13
2022-10-05T18:00:32.936Z,101074.44
2022-10-05T18:03:00.521Z,101059.53
2022-10-05T18:05:31.041Z,101062.59
2022-10-05T18:08:30.261Z,101060.69
2022-10-05T18:11:35.324Z,101058.72
2022-10-05T18:14:26.449Z,101057.06
2022-10-05T18:17:01.896Z,101055.97
2022-10-05T18:19:31.529Z,101056.28
2022-10-05T18:22:15.647Z,101051.28
2022-10-05T18:24:55.770Z,101051.25
2022-10-05T18:27:32.017Z,101050.41
2022-10-05T18:30:28.657Z,101050.75
2022-10-05T18:33:01.184Z,101044.09
2022-10-05T18:36:12.421Z,101048.25
2022-10-05T18:38:57.783Z,101050.44
2022-10-05T18:41:51.479Z,101050.41
2022-10-05T18:44:40.587Z,101049.31
2022-10-05T18:47:33.812Z,101049.56
2022-10-05T18:50:29.614Z,101054.22
2022-10-05T18:53:24.226Z,101054.72
2022-10-05T18:56:18.106Z,101050.91
2022-10-05T18:59:09.136Z,101047.28
2022-10-05T19:01:58.573Z,101052.59
2022-10-05T19:04:46.571Z,101056.91
2022-10-05T19:07:19.516Z,101050.28
2022-10-05T19:10:33.739Z,101051.38
2022-10-05T19:13:03.078Z,101048.16
2022-10-05T19:15:47.841Z,101053.63
2022-10-05T19:18:48.752Z,101060.13
2022-10-05T19:21:29.552Z,101055.69
2022-10-05T19:24:04.939Z,101055.88
2022-10-05T19:26:43.566Z,101057.41
2022-10-05T19:29:36.011Z,101069.00
2022-10-05T19:32:14.251Z,101068.81
2022-10-05T19:34:49.876Z,101077.47
2022-10-05T19:37:31.071Z,101074.91
2022-10-05T19:40:09.675Z,101084.31
2022-10-05T19:42:57.696Z,101084.06
2022-10-05T19:45:37.336Z,101083.03
2022-10-05T19:48:22.072Z,101087.97
2022-10-05T19:50:57.816Z,101071.53
2022-10-05T19:53:38.117Z,101085.91
2022-10-05T19:56:35.804Z,101087.84
2022-10-05T19:59:17.535Z,101088.13
2022-10-05T20:01:50.270Z,101085.41
2022-10-05T20:04:36.665Z,101086.00
2022-10-05T20:07:04.388Z,101086.53
2022-10-05T20:09:59.589Z,101087.06
2022-10-05T20:12:52.439Z,101082.69
2022-10-05T20:15:40.955Z,101084.31
2022-10-05T20:19:03.298Z,101089.53
2022-10-05T20:21:42.078Z,101095.91
2022-10-05T20:24:11.443Z,101087.91
2022-10-05T20:27:09.518Z,101093.41
2022-10-05T20:29:39.630Z,101091.19
2022-10-05T20:32:15.291Z,101100.59
2022-10-05T20:34:43.879Z,101100.28
2022-10-05T20:37:13.140Z,101106.66
2022-10-05T20:39:40.600Z,101114.66
2022-10-05T20:42:08.732Z,101118.22
2022-10-05T20:44:36.189Z,101114.63
2022-10-05T20:47:03.412Z,101118.47
2022-10-05T20:49:31.617Z,101113.59
2022-10-05T20:51:59.050Z,101107.19
2022-10-05T20:54:26.699Z,101114.06
2022-10-05T20:56:55.106Z,101112.41
2022-10-05T20:59:23.377Z,101114.91
2022-10-05T21:01:50.494Z,101098.69
2022-10-05T21:04:19.945Z,101112.69
2022-10-05T21:06:47.076Z,101119.28
2022-10-05T21:09:15.550Z,101117.63
2022-10-05T21:11:43.100Z,101108.81
2022-10-05T21:14:11.352Z,101115.22
2022-10-05T21:16:38.689Z,101122.31
2022-10-05T21:19:09.500Z,101121.22
2022-10-05T21:21:37.421Z,101128.13
2022-10-05T21:24:05.392Z,101140.78
2022-10-05T21:26:32.862Z,101141.06
2022-10-05T21:29:01.239Z,101143.84
2022-10-05T21:31:28.661Z,101145.97
2022-10-05T21:33:56.037Z,101155.34
2022-10-05T21:36:24.715Z,101152.84
2022-10-05T21:38:53.296Z,101157.03
2022-10-05T21:41:20.579Z,101165.25
2022-10-05T21:43:47.273Z,101157.59
2022-10-05T21:46:17.796Z,101167.19
2022-10-05T21:48:44.546Z,101163.56
2022-10-05T21:51:16.418Z,101166.94
2022-10-05T21:53:51.762Z,101144.31
2022-10-05T21:56:22.393Z,101157.03
2022-10-05T21:58:50.599Z,101155.97
2022-10-05T22:01:22.393Z,101171.09
2022-10-05T22:03:49.663Z,101163.59
2022-10-05T22:06:16.279Z,101164.97
2022-10-05T22:08:43.228Z,101182.59
2022-10-05T22:11:15.546Z,101172.97
2022-10-05T22:13:52.519Z,101171.84
2022-10-05T22:16:21.913Z,101175.72
2022-10-05T22:18:49.606Z,101181.00
2022-10-05T22:21:17.024Z,101191.44
2022-10-05T22:23:45.656Z,101192.84
2022-10-05T22:26:16.022Z,101210.19
2022-10-05T22:28:43.315Z,101222.31
2022-10-05T22:31:12.482Z,101229.97
2022-10-05T22:33:39.935Z,101250.91
2022-10-05T22:36:07.962Z,101249.38
2022-10-05T22:38:34.607Z,101266.81
2022-10-05T22:41:01.167Z,101265.06
2022-10-05T22:43:27.848Z,101248.13
2022-10-05T22:45:55.097Z,101237.38
2022-10-05T22:48:22.120Z,101251.69
2022-10-05T22:50:49.341Z,101247.78
2022-10-05T22:53:15.972Z,101258.44
2022-10-05T22:55:42.628Z,101262.47
2022-10-05T22:58:09.304Z,101282.84
2022-10-05T23:00:57.038Z,101277.75
2022-10-05T23:03:23.034Z,101277.81
2022-10-05T23:05:56.410Z,101280.56
2022-10-05T23:08:23.068Z,101285.44
2022-10-05T23:10:49.594Z,101296.41
2022-10-05T23:13:16.156Z,101300.41
2022-10-05T23:15:42.770Z,101308.59
2022-10-05T23:18:09.346Z,101301.66
2022-10-05T23:20:37.088Z,101300.00
2022-10-05T23:23:03.641Z,101300.31
2022-10-05T23:25:30.152Z,101304.78
2022-10-05T23:27:56.790Z,101303.06
2022-10-05T23:30:23.401Z,101324.13
2022-10-05T23:32:50.182Z,101323.59
2022-10-05T23:35:16.858Z,101315.28
2022-10-05T23:37:44.860Z,101330.31
2022-10-05T23:40:13.528Z,101333.63
2022-10-05T23:42:41.024Z,101347.50
2022-10-05T23:45:09.290Z,101357.34
2022-10-05T23:47:35.883Z,101358.94
2022-10-05T23:50:03.100Z,101367.75
2022-10-05T23:52:29.567Z,101376.13
2022-10-05T23:54:56.127Z,101372.19
2022-10-05T23:57:22.806Z,101375.94
2022-10-05T23:59:52.410Z,101384.03
